Time;durP1;ratioP1;P1;durP2;ratioP2;P2;SDS_P1;SDS_P2;PMS_P1;PMS_P2;Temp;Humidity;BMP_temperature;BMP_pressure;BME280_temperature;BME280_humidity;BME280_pressure;Samples;Min_cycle;Max_cycle;Signal;HPM_P1;HPM_P2
2023/08/31 00:01:53;;;;;;;;;;;;;;;27.55;38.67;99885.44;5075220;28;1154;-32
2023/08/31 00:04:18;;;;;;;;;;;;;;;27.49;38.63;99878.16;5075513;28;1976;-30
2023/08/31 00:06:46;;;;;;;;;;;;;;;27.59;38.58;99881.25;5075298;28;1141;-33
2023/08/31 00:09:12;;;;;;;;;;;;;;;27.54;37.82;99874.84;5075286;28;964;-34
2023/08/31 00:11:37;;;;;;;;;;;;;;;27.65;37.94;99866.09;5081464;28;2565;-30
2023/08/31 00:14:03;;;;;;;;;;;;;;;27.50;37.98;99867.16;5055178;28;1135;-30
2023/08/31 00:16:29;;;;;;;;;;;;;;;27.69;37.51;99866.56;5070833;28;1079;-30
2023/08/31 00:18:56;;;;;;;;;;;;;;;27.59;38.12;99862.34;5075693;28;1035;-32
2023/08/31 00:21:21;;;;;;;;;;;;;;;27.54;38.63;99867.56;5078361;28;1079;-30
2023/08/31 00:23:48;;;;;;;;;;;;;;;27.49;38.68;99870.88;5078558;28;1910;-31
2023/08/31 00:26:14;;;;;;;;;;;;;;;27.64;38.13;99867.16;5066235;28;1111;-36
2023/08/31 00:28:42;;;;;;;;;;;;;;;27.61;38.32;99871.09;5079001;28;1083;-35
2023/08/31 00:31:10;;;;;;;;;;;;;;;27.59;37.87;99866.94;5076087;28;1221;-29
2023/08/31 00:33:38;;;;;;;;;;;;;;;27.68;38.16;99868.41;5069155;28;1118;-36
2023/08/31 00:36:04;;;;;;;;;;;;;;;27.59;38.41;99865.06;5078849;28;1111;-33
2023/08/31 00:38:30;;;;;;;;;;;;;;;27.66;37.99;99875.06;5079117;28;1213;-32
2023/08/31 00:40:56;;;;;;;;;;;;;;;27.67;38.29;99882.09;5056816;28;2234;-32
2023/08/31 00:43:22;;;;;;;;;;;;;;;27.69;37.88;99872.81;5041089;28;1973;-29
2023/08/31 00:45:48;;;;;;;;;;;;;;;27.62;38.28;99885.44;5058860;28;1241;-33
2023/08/31 00:48:16;;;;;;;;;;;;;;;27.74;37.73;99891.09;5056646;28;1334;-29
2023/08/31 00:50:41;;;;;;;;;;;;;;;27.64;38.19;99902.28;5065385;28;1140;-33
2023/08/31 00:53:07;;;;;;;;;;;;;;;27.62;38.27;99899.78;5078605;28;1058;-33
2023/08/31 00:55:32;;;;;;;;;;;;;;;27.74;37.76;99904.59;5060456;28;1112;-33
2023/08/31 00:57:58;;;;;;;;;;;;;;;27.70;37.98;99906.88;5078664;28;1150;-32
2023/08/31 01:00:24;;;;;;;;;;;;;;;27.66;38.39;99908.28;5074295;28;1178;-29
2023/08/31 01:02:57;;;;;;;;;;;;;;;27.72;38.11;99906.66;5050984;28;1041;-31
2023/08/31 01:05:42;;;;;;;;;;;;;;;27.67;37.99;99912.66;5060510;28;1179;-31
2023/08/31 01:08:12;;;;;;;;;;;;;;;27.70;38.59;99917.69;5078423;28;1135;-35
2023/08/31 01:10:49;;;;;;;;;;;;;;;27.72;37.94;99917.47;5070609;28;2497;-31
2023/08/31 01:13:16;;;;;;;;;;;;;;;27.71;38.42;99913.13;5071478;28;1075;-31
2023/08/31 01:15:42;;;;;;;;;;;;;;;27.65;38.26;99914.75;5050360;28;1116;-30
2023/08/31 01:18:09;;;;;;;;;;;;;;;27.76;38.21;99907.91;5043721;28;1262;-34
2023/08/31 01:20:38;;;;;;;;;;;;;;;27.68;38.31;99910.78;5060249;28;1324;-29
2023/08/31 01:23:06;;;;;;;;;;;;;;;27.67;38.38;99915.38;5077975;28;2001;-34
2023/08/31 01:25:32;;;;;;;;;;;;;;;27.72;38.17;99922.88;5049887;28;888;-31
2023/08/31 01:27:58;;;;;;;;;;;;;;;27.69;38.24;99924.13;5075051;28;1109;-30
2023/08/31 01:30:24;;;;;;;;;;;;;;;27.74;38.38;99929.72;5078035;28;1090;-29
2023/08/31 01:32:50;;;;;;;;;;;;;;;27.73;38.04;99933.47;5056190;28;1202;-32
2023/08/31 01:35:19;;;;;;;;;;;;;;;27.81;38.32;99935.13;5068315;28;1094;-29
2023/08/31 01:37:50;;;;;;;;;;;;;;;27.73;38.15;99927.22;5060367;28;1083;-33
2023/08/31 01:40:20;;;;;;;;;;;;;;;27.86;38.09;99931.84;5069777;28;1817;-33
2023/08/31 01:42:46;;;;;;;;;;;;;;;27.80;37.96;99938.03;5058875;28;1186;-33
2023/08/31 01:45:13;;;;;;;;;;;;;;;27.83;38.24;99941.16;5059418;28;1901;-32
2023/08/31 01:47:38;;;;;;;;;;;;;;;27.78;37.91;99945.56;5077760;28;1055;-34
2023/08/31 01:50:04;;;;;;;;;;;;;;;27.77;38.37;99949.28;5047030;28;876;-31
2023/08/31 01:52:30;;;;;;;;;;;;;;;27.77;38.40;99935.75;5076972;28;1201;-32
2023/08/31 01:54:56;;;;;;;;;;;;;;;27.74;38.33;99942.44;5059262;28;1213;-30
2023/08/31 01:57:21;;;;;;;;;;;;;;;27.72;38.38;99945.34;5046021;28;1212;-30
2023/08/31 02:00:09;;;;;;;;;;;;;;;27.62;38.31;99948.41;5058912;28;1408;-31
2023/08/31 02:02:41;;;;;;;;;;;;;;;27.89;38.17;99947.63;5068419;28;969;-35
2023/08/31 02:05:07;;;;;;;;;;;;;;;27.65;38.45;99941.75;5073300;28;1976;-31
2023/08/31 02:07:33;;;;;;;;;;;;;;;27.77;38.26;99944.72;5077353;28;1055;-34
2023/08/31 02:09:58;;;;;;;;;;;;;;;27.84;38.04;99942.81;5056452;28;2268;-32
2023/08/31 02:12:24;;;;;;;;;;;;;;;27.80;38.43;99952.41;5066054;28;1032;-30
2023/08/31 02:14:49;;;;;;;;;;;;;;;27.88;37.69;99945.94;5061122;28;1090;-33
2023/08/31 02:17:15;;;;;;;;;;;;;;;27.89;37.72;99942.22;5057215;28;1189;-30
2023/08/31 02:19:40;;;;;;;;;;;;;;;27.84;38.12;99942.81;5055332;28;1370;-30
2023/08/31 02:22:06;;;;;;;;;;;;;;;27.77;37.17;99939.31;5059223;28;1283;-34
2023/08/31 02:24:32;;;;;;;;;;;;;;;27.86;38.09;99942.66;5076637;28;1976;-31
2023/08/31 02:26:57;;;;;;;;;;;;;;;27.75;38.01;99938.69;5058718;28;1318;-33
2023/08/31 02:29:25;;;;;;;;;;;;;;;27.71;38.76;99946.34;5076645;28;1034;-33
2023/08/31 02:31:51;;;;;;;;;;;;;;;27.93;37.42;99945.31;5058932;28;1109;-35
2023/08/31 02:34:16;;;;;;;;;;;;;;;27.78;37.95;99940.16;5076829;28;1217;-33
2023/08/31 02:36:42;;;;;;;;;;;;;;;27.81;38.03;99939.72;5076640;28;1083;-32
2023/08/31 02:39:09;;;;;;;;;;;;;;;27.87;37.49;99949.69;5076401;28;1145;-33
2023/08/31 02:41:36;;;;;;;;;;;;;;;27.73;38.10;99954.25;5066975;28;2524;-29
2023/08/31 02:44:03;;;;;;;;;;;;;;;27.88;37.07;99956.75;5071934;28;1971;-31
2023/08/31 02:46:29;;;;;;;;;;;;;;;27.72;37.65;99953.44;5076774;28;1004;-29
2023/08/31 02:48:55;;;;;;;;;;;;;;;27.89;37.40;99958.44;5076049;28;1070;-31
2023/08/31 02:51:20;;;;;;;;;;;;;;;27.65;37.86;99954.41;5076510;28;1055;-33
2023/08/31 02:53:46;;;;;;;;;;;;;;;27.74;37.82;99951.34;5076457;28;1075;-31
2023/08/31 02:56:11;;;;;;;;;;;;;;;27.93;37.42;99954.28;5076611;28;1019;-30
2023/08/31 02:58:37;;;;;;;;;;;;;;;27.75;37.55;99958.44;5058303;28;1294;-31
2023/08/31 03:01:11;;;;;;;;;;;;;;;27.78;37.61;99959.06;5058075;28;1120;-33
2023/08/31 03:03:38;;;;;;;;;;;;;;;27.60;37.74;99952.34;5044949;28;2036;-31
2023/08/31 03:06:05;;;;;;;;;;;;;;;27.85;37.47;99949.06;5058065;28;1055;-31
2023/08/31 03:08:31;;;;;;;;;;;;;;;27.58;38.21;99946.31;5059061;28;1090;-32
2023/08/31 03:10:56;;;;;;;;;;;;;;;27.87;37.43;99955.09;5041278;28;2696;-32
2023/08/31 03:13:22;;;;;;;;;;;;;;;27.84;37.05;99953.63;5055342;28;1245;-28
2023/08/31 03:15:48;;;;;;;;;;;;;;;27.92;37.42;99955.31;5076180;28;1019;-35
2023/08/31 03:18:13;;;;;;;;;;;;;;;28.03;37.26;99956.56;5057649;28;1082;-30
2023/08/31 03:20:39;;;;;;;;;;;;;;;27.70;37.70;99957.38;5076124;28;1027;-32
2023/08/31 03:23:04;;;;;;;;;;;;;;;27.82;37.76;99954.91;5057892;28;1992;-33
2023/08/31 03:25:30;;;;;;;;;;;;;;;27.95;37.23;99952.19;5075787;28;1097;-31
2023/08/31 03:27:56;;;;;;;;;;;;;;;27.95;37.34;99951.34;5042108;28;1106;-29
2023/08/31 03:30:21;;;;;;;;;;;;;;;27.69;36.91;99958.41;5048099;28;1236;-33
2023/08/31 03:32:47;;;;;;;;;;;;;;;27.75;37.48;99960.28;5057921;28;1308;-32
2023/08/31 03:35:12;;;;;;;;;;;;;;;27.81;36.53;99970.25;5075771;28;1158;-28
2023/08/31 03:37:38;;;;;;;;;;;;;;;27.75;36.83;99968.41;5054063;28;1135;-34
2023/08/31 03:40:06;;;;;;;;;;;;;;;27.93;36.29;99969.66;5044328;28;2240;-31
2023/08/31 03:42:31;;;;;;;;;;;;;;;27.69;37.40;99963.81;5040420;28;1207;-32
2023/08/31 03:44:57;;;;;;;;;;;;;;;27.83;37.01;99967.34;5055776;28;1909;-33
2023/08/31 03:47:23;;;;;;;;;;;;;;;27.99;41.24;99968.84;5037734;28;1190;-30
2023/08/31 03:49:49;;;;;;;;;;;;;;;28.11;44.91;99969.03;5044677;28;1207;-33
2023/08/31 03:52:14;;;;;;;;;;;;;;;28.24;49.40;99971.72;5062335;28;1046;-33
2023/08/31 03:54:40;;;;;;;;;;;;;;;28.01;47.70;99977.53;5047257;28;1863;-30
2023/08/31 03:57:06;;;;;;;;;;;;;;;28.08;44.04;99978.38;5041698;28;2223;-36
2023/08/31 03:59:31;;;;;;;;;;;;;;;28.29;41.97;99976.53;5052218;28;1246;-31
2023/08/31 04:01:57;;;;;;;;;;;;;;;28.33;40.32;99987.75;5057920;28;1256;-33
2023/08/31 04:04:22;;;;;;;;;;;;;;;28.22;40.91;99987.34;5051675;28;1983;-31
2023/08/31 04:06:48;;;;;;;;;;;;;;;28.23;41.51;99990.84;5079198;28;1015;-31
2023/08/31 04:09:13;;;;;;;;;;;;;;;28.26;41.18;99997.72;5072384;28;1248;-33
2023/08/31 04:11:39;;;;;;;;;;;;;;;27.97;41.82;99997.94;5057884;28;2572;-33
2023/08/31 04:14:04;;;;;;;;;;;;;;;27.79;42.33;100006.66;5041347;28;1238;-29
2023/08/31 04:16:30;;;;;;;;;;;;;;;28.09;42.16;100015.19;5059003;28;1277;-29
2023/08/31 04:18:56;;;;;;;;;;;;;;;28.14;41.47;100014.59;5057121;28;1230;-31
2023/08/31 04:21:21;;;;;;;;;;;;;;;27.91;41.91;100015.81;5059054;28;1222;-29
2023/08/31 04:23:47;;;;;;;;;;;;;;;28.20;41.20;100027.28;5059142;28;1965;-31
2023/08/31 04:26:13;;;;;;;;;;;;;;;27.99;41.66;100028.31;5061334;28;1226;-35
2023/08/31 04:28:42;;;;;;;;;;;;;;;27.95;41.93;100032.44;5076190;28;1226;-32
2023/08/31 04:31:07;;;;;;;;;;;;;;;28.02;41.44;100038.72;5078678;28;1036;-35
2023/08/31 04:33:36;;;;;;;;;;;;;;;28.08;41.58;100043.28;5078230;28;1068;-31
2023/08/31 04:36:03;;;;;;;;;;;;;;;28.26;42.07;100041.00;5068420;28;1566;-34
2023/08/31 04:38:29;;;;;;;;;;;;;;;28.34;42.11;100044.34;5058529;28;1199;-33
2023/08/31 04:40:54;;;;;;;;;;;;;;;28.35;42.53;100040.63;5066971;28;2450;-30
2023/08/31 04:43:20;;;;;;;;;;;;;;;28.20;43.13;100045.34;5060684;28;1980;-32
2023/08/31 04:45:45;;;;;;;;;;;;;;;28.22;43.63;100046.84;5079045;28;1070;-33
2023/08/31 04:48:11;;;;;;;;;;;;;;;28.32;44.05;100050.97;5079294;28;1154;-32
2023/08/31 04:50:37;;;;;;;;;;;;;;;28.19;45.01;100044.53;5078535;28;859;-32
2023/08/31 04:53:04;;;;;;;;;;;;;;;28.08;45.36;100045.97;5078770;28;1074;-33
2023/08/31 04:55:29;;;;;;;;;;;;;;;28.34;44.77;100044.34;5078675;28;1114;-34
2023/08/31 04:57:57;;;;;;;;;;;;;;;28.31;44.81;100046.63;5078112;28;1051;-36
2023/08/31 05:00:23;;;;;;;;;;;;;;;28.34;44.86;100043.53;5077743;28;1242;-30
2023/08/31 05:02:48;;;;;;;;;;;;;;;28.38;44.90;100055.59;5067658;28;1195;-31
2023/08/31 05:05:14;;;;;;;;;;;;;;;28.39;45.19;100054.56;5058135;28;1978;-34
2023/08/31 05:07:39;;;;;;;;;;;;;;;28.25;45.54;100053.69;5057365;28;1254;-32
2023/08/31 05:10:06;;;;;;;;;;;;;;;28.40;44.81;100058.06;5060576;28;1855;-31
2023/08/31 05:12:31;;;;;;;;;;;;;;;28.50;44.43;100052.25;5058175;28;1317;-32
2023/08/31 05:14:57;;;;;;;;;;;;;;;28.50;44.26;100054.94;5060295;28;1238;-35
2023/08/31 05:17:22;;;;;;;;;;;;;;;28.54;43.85;100065.16;5057732;28;1199;-32
2023/08/31 05:19:48;;;;;;;;;;;;;;;28.61;43.64;100054.34;5057888;28;1321;-33
2023/08/31 05:22:13;;;;;;;;;;;;;;;28.62;43.64;100058.69;5057680;28;1238;-34
2023/08/31 05:24:39;;;;;;;;;;;;;;;28.62;43.59;100066.81;5057214;28;1988;-30
2023/08/31 05:27:05;;;;;;;;;;;;;;;28.63;43.11;100073.88;5060410;28;1183;-33
2023/08/31 05:29:30;;;;;;;;;;;;;;;28.64;42.92;100067.44;5073714;28;1203;-29
2023/08/31 05:31:56;;;;;;;;;;;;;;;28.72;43.04;100067.22;5077723;28;1219;-32
2023/08/31 05:34:22;;;;;;;;;;;;;;;28.73;43.11;100073.44;5077669;28;1211;-33
2023/08/31 05:36:48;;;;;;;;;;;;;;;28.78;42.93;100070.94;5077585;28;1273;-31
2023/08/31 05:39:15;;;;;;;;;;;;;;;28.77;42.86;100063.03;5066627;28;1242;-30
2023/08/31 05:41:41;;;;;;;;;;;;;;;28.73;43.34;100071.59;5060334;28;2696;-29
2023/08/31 05:44:07;;;;;;;;;;;;;;;28.77;43.93;100073.88;5057517;28;1914;-34
2023/08/31 05:46:33;;;;;;;;;;;;;;;28.83;43.78;100075.72;5057385;28;1139;-31
2023/08/31 05:48:59;;;;;;;;;;;;;;;28.72;43.76;100079.91;5057748;28;1290;-32
2023/08/31 05:51:24;;;;;;;;;;;;;;;28.81;43.24;100078.63;5057057;28;1128;-30
2023/08/31 05:53:50;;;;;;;;;;;;;;;28.81;43.34;100080.53;5057109;28;1278;-32
2023/08/31 05:56:15;;;;;;;;;;;;;;;28.88;43.28;100083.22;5056938;28;1225;-30
2023/08/31 05:58:41;;;;;;;;;;;;;;;28.83;43.07;100090.09;5074277;28;1407;-34
2023/08/31 06:01:07;;;;;;;;;;;;;;;28.81;43.44;100088.66;5076594;28;1249;-30
2023/08/31 06:03:32;;;;;;;;;;;;;;;28.90;43.43;100090.09;5065838;28;1972;-31
2023/08/31 06:05:58;;;;;;;;;;;;;;;28.86;43.23;100088.84;5056499;28;1202;-34
2023/08/31 06:08:24;;;;;;;;;;;;;;;29.01;42.59;100091.31;5056879;28;1253;-30
2023/08/31 06:10:50;;;;;;;;;;;;;;;28.99;43.07;100101.56;5066970;28;2179;-34
2023/08/31 06:13:15;;;;;;;;;;;;;;;28.94;42.97;100107.59;5077006;28;1281;-29
2023/08/31 06:15:41;;;;;;;;;;;;;;;28.96;43.43;100110.09;5064710;28;1196;-29
2023/08/31 06:18:07;;;;;;;;;;;;;;;28.99;43.18;100112.38;5055739;28;1242;-33
2023/08/31 06:20:32;;;;;;;;;;;;;;;28.97;42.66;100111.75;5056521;28;1178;-32
2023/08/31 06:22:59;;;;;;;;;;;;;;;29.05;42.09;100118.81;5055976;28;1261;-33
2023/08/31 06:25:24;;;;;;;;;;;;;;;28.99;42.53;100117.81;5056651;28;1983;-33
2023/08/31 06:27:50;;;;;;;;;;;;;;;29.06;42.16;100124.03;5039295;28;1254;-32
2023/08/31 06:30:17;;;;;;;;;;;;;;;28.88;42.17;100121.94;5066188;28;1008;-31
2023/08/31 06:32:46;;;;;;;;;;;;;;;28.87;42.50;100124.84;5076578;28;999;-34
2023/08/31 06:35:12;;;;;;;;;;;;;;;28.84;42.81;100129.66;5077485;28;1023;-34
2023/08/31 06:37:38;;;;;;;;;;;;;;;28.80;43.02;100133.00;5076627;28;1224;-31
2023/08/31 06:40:04;;;;;;;;;;;;;;;29.13;42.60;100128.63;5076431;28;1846;-33
2023/08/31 06:42:30;;;;;;;;;;;;;;;29.15;41.99;100131.91;5076539;28;1121;-33
2023/08/31 06:44:56;;;;;;;;;;;;;;;29.20;41.85;100130.25;5076598;28;1973;-34
2023/08/31 06:47:22;;;;;;;;;;;;;;;29.11;41.93;100133.41;5070363;28;1321;-34
2023/08/31 06:49:49;;;;;;;;;;;;;;;29.12;42.29;100124.22;5056583;28;1096;-34
2023/08/31 06:52:15;;;;;;;;;;;;;;;29.12;42.83;100137.75;5071493;28;1171;-29
2023/08/31 06:54:41;;;;;;;;;;;;;;;29.13;42.18;100136.75;5076502;28;1103;-33
2023/08/31 06:57:07;;;;;;;;;;;;;;;29.10;42.61;100135.28;5076009;28;1186;-33
2023/08/31 06:59:33;;;;;;;;;;;;;;;29.28;41.52;100142.72;5056139;28;1206;-35
2023/08/31 07:01:58;;;;;;;;;;;;;;;29.23;42.22;100136.28;5056367;28;1115;-33
2023/08/31 07:04:24;;;;;;;;;;;;;;;29.33;41.73;100126.66;5072049;28;1967;-33
2023/08/31 07:06:51;;;;;;;;;;;;;;;29.13;42.89;100128.63;5076444;28;1087;-32
2023/08/31 07:09:17;;;;;;;;;;;;;;;29.36;42.19;100128.13;5076408;28;2364;-29
2023/08/31 07:11:43;;;;;;;;;;;;;;;29.50;41.98;100128.06;5067782;28;980;-30
2023/08/31 07:14:08;;;;;;;;;;;;;;;29.36;42.07;100138.97;5071742;28;1040;-33
2023/08/31 07:16:34;;;;;;;;;;;;;;;29.32;42.41;100143.97;5076063;28;929;-29
2023/08/31 07:18:59;;;;;;;;;;;;;;;29.21;42.70;100147.34;5075885;28;1149;-33
2023/08/31 07:21:26;;;;;;;;;;;;;;;29.26;43.17;100149.41;5074737;28;1168;-30
2023/08/31 07:23:52;;;;;;;;;;;;;;;29.49;42.14;100143.50;5056530;28;1906;-32
2023/08/31 07:26:18;;;;;;;;;;;;;;;29.37;43.07;100137.91;5057122;28;1111;-31
2023/08/31 07:28:43;;;;;;;;;;;;;;;29.60;41.96;100136.59;5075646;28;941;-33
2023/08/31 07:31:09;;;;;;;;;;;;;;;29.56;41.85;100144.28;5062944;28;1063;-34
2023/08/31 07:33:35;;;;;;;;;;;;;;;29.53;42.24;100147.44;5076001;28;1067;-34
2023/08/31 07:36:03;;;;;;;;;;;;;;;29.37;42.46;100147.91;5076244;28;1027;-32
2023/08/31 07:38:29;;;;;;;;;;;;;;;29.42;42.26;100135.41;5076378;28;1027;-32
2023/08/31 07:40:55;;;;;;;;;;;;;;;29.46;42.38;100144.75;5072931;28;2366;-31
2023/08/31 07:43:20;;;;;;;;;;;;;;;29.82;41.06;100136.28;5075792;28;1972;-34
2023/08/31 07:45:46;;;;;;;;;;;;;;;29.76;41.66;100143.41;5075986;28;991;-34
2023/08/31 07:48:11;;;;;;;;;;;;;;;29.90;40.81;100141.47;5074654;28;1201;-31
2023/08/31 07:50:37;;;;;;;;;;;;;;;29.99;40.75;100143.91;5075569;28;1118;-32
2023/08/31 07:53:03;;;;;;;;;;;;;;;29.72;41.31;100139.47;5075801;28;928;-33
2023/08/31 07:55:29;;;;;;;;;;;;;;;29.61;42.08;100141.00;5075664;28;987;-33
2023/08/31 07:57:54;;;;;;;;;;;;;;;29.81;40.80;100131.94;5070315;28;1214;-31
2023/08/31 08:00:20;;;;;;;;;;;;;;;29.76;41.25;100135.28;5055819;28;1199;-33
2023/08/31 08:02:46;;;;;;;;;;;;;;;30.02;40.60;100130.75;5062932;28;1027;-35
2023/08/31 08:05:12;;;;;;;;;;;;;;;29.88;40.88;100140.84;5061891;28;1906;-32
2023/08/31 08:07:37;;;;;;;;;;;;;;;29.84;40.66;100144.22;5075139;28;1179;-34
2023/08/31 08:10:03;;;;;;;;;;;;;;;29.77;40.84;100141.53;5068945;28;1860;-32
2023/08/31 08:12:36;;;;;;;;;;;;;;;29.73;41.36;100137.59;5063180;28;1040;-35
2023/08/31 08:15:02;;;;;;;;;;;;;;;29.86;41.25;100137.53;5075338;28;1134;-36
2023/08/31 08:17:27;;;;;;;;;;;;;;;29.79;40.89;100132.16;5067264;28;1016;-32
2023/08/31 08:19:53;;;;;;;;;;;;;;;29.84;40.96;100136.06;5070788;28;1079;-30
2023/08/31 08:22:18;;;;;;;;;;;;;;;29.86;40.60;100128.56;5075852;28;1079;-29
2023/08/31 08:24:44;;;;;;;;;;;;;;;29.73;41.04;100124.84;5074464;28;1967;-30
2023/08/31 08:27:09;;;;;;;;;;;;;;;29.81;40.99;100118.38;5063252;28;1047;-31
2023/08/31 08:29:35;;;;;;;;;;;;;;;29.65;41.53;100122.41;5074943;28;1095;-33
2023/08/31 08:32:00;;;;;;;;;;;;;;;29.69;41.29;100126.34;5075750;28;980;-32
2023/08/31 08:34:26;;;;;;;;;;;;;;;29.76;41.31;100131.75;5075496;28;1067;-31
2023/08/31 08:36:52;;;;;;;;;;;;;;;29.70;41.66;100125.28;5075260;28;1014;-34
2023/08/31 08:39:18;;;;;;;;;;;;;;;29.53;41.99;100128.47;5074776;28;1818;-33
2023/08/31 08:41:43;;;;;;;;;;;;;;;29.86;41.68;100123.16;5067440;28;1139;-35
2023/08/31 08:44:09;;;;;;;;;;;;;;;29.74;41.79;100134.69;5044553;28;1976;-36
2023/08/31 08:46:34;;;;;;;;;;;;;;;29.63;42.04;100135.34;5078840;28;1039;-34
2023/08/31 08:49:02;;;;;;;;;;;;;;;29.87;41.75;100141.91;5061186;28;1030;-33
2023/08/31 08:51:28;;;;;;;;;;;;;;;30.02;41.26;100144.31;5078646;28;1051;-33
2023/08/31 08:53:53;;;;;;;;;;;;;;;29.92;41.20;100133.97;5065557;28;1097;-35
2023/08/31 08:56:19;;;;;;;;;;;;;;;29.86;41.89;100147.53;5044008;28;1167;-36
2023/08/31 08:58:44;;;;;;;;;;;;;;;29.88;41.87;100150.88;5078209;28;1230;-38
2023/08/31 09:01:10;;;;;;;;;;;;;;;29.74;41.96;100150.94;5070054;28;1067;-33
2023/08/31 09:03:36;;;;;;;;;;;;;;;29.73;41.84;100156.59;5055427;28;1971;-37
2023/08/31 09:06:03;;;;;;;;;;;;;;;29.89;41.84;100147.09;5058175;28;1242;-36
2023/08/31 09:08:29;;;;;;;;;;;;;;;29.98;41.77;100150.41;5057898;28;1238;-33
2023/08/31 09:10:58;;;;;;;;;;;;;;;30.17;41.13;100154.03;5069072;28;2383;-31
2023/08/31 09:13:26;;;;;;;;;;;;;;;30.25;41.06;100151.09;5060382;28;1186;-36
2023/08/31 09:15:51;;;;;;;;;;;;;;;30.16;41.19;100146.97;5075881;28;1258;-37
2023/08/31 09:18:23;;;;;;;;;;;;;;;30.04;41.24;100141.41;5057859;28;1304;-33
2023/08/31 09:20:48;;;;;;;;;;;;;;;30.29;40.71;100136.06;5058690;28;1023;-34
2023/08/31 09:23:14;;;;;;;;;;;;;;;30.49;40.00;100137.78;5075847;28;1064;-34
2023/08/31 09:25:43;;;;;;;;;;;;;;;30.15;41.05;100137.13;5062250;28;1981;-34
2023/08/31 09:28:09;;;;;;;;;;;;;;;30.16;41.10;100145.06;5063104;28;1075;-32
2023/08/31 09:30:36;;;;;;;;;;;;;;;30.29;41.12;100149.63;5059436;28;1312;-33
2023/08/31 09:33:03;;;;;;;;;;;;;;;30.43;40.26;100134.06;5058472;28;1092;-36
2023/08/31 09:35:29;;;;;;;;;;;;;;;30.24;40.97;100135.88;5076759;28;1146;-34
2023/08/31 09:37:56;;;;;;;;;;;;;;;30.36;40.52;100146.03;5077946;28;1085;-34
2023/08/31 09:40:21;;;;;;;;;;;;;;;30.42;40.47;100145.13;5076796;28;2539;-38
2023/08/31 09:42:49;;;;;;;;;;;;;;;30.28;40.91;100144.41;5060367;28;1250;-35
2023/08/31 09:45:17;;;;;;;;;;;;;;;30.23;41.20;100147.75;5057809;28;1974;-33
2023/08/31 09:47:42;;;;;;;;;;;;;;;30.32;40.29;100148.34;5057831;28;1086;-35
2023/08/31 09:50:08;;;;;;;;;;;;;;;30.58;40.06;100143.75;5050797;28;1076;-35
2023/08/31 09:52:33;;;;;;;;;;;;;;;30.42;40.38;100145.13;5071923;28;1079;-33
2023/08/31 09:55:00;;;;;;;;;;;;;;;30.50;39.98;100147.56;5057830;28;1105;-34
2023/08/31 09:57:25;;;;;;;;;;;;;;;30.41;39.52;100146.19;5058290;28;1096;-35
2023/08/31 09:59:51;;;;;;;;;;;;;;;30.08;39.93;100156.16;5077561;28;1017;-37
2023/08/31 10:02:16;;;;;;;;;;;;;;;30.14;38.24;100149.06;5077566;28;979;-31
2023/08/31 10:04:42;;;;;;;;;;;;;;;29.91;38.97;100166.72;5059263;28;1906;-31
2023/08/31 10:07:09;;;;;;;;;;;;;;;29.83;38.95;100148.78;5064257;28;1067;-33
2023/08/31 10:09:35;;;;;;;;;;;;;;;29.77;38.51;100153.22;5077538;28;1813;-35
2023/08/31 10:12:03;;;;;;;;;;;;;;;29.65;38.90;100158.47;5077734;28;961;-35
2023/08/31 10:14:28;;;;;;;;;;;;;;;29.67;38.84;100159.09;5059913;28;1111;-35
2023/08/31 10:16:54;;;;;;;;;;;;;;;29.47;39.14;100164.56;5058033;28;1175;-33
2023/08/31 10:19:20;;;;;;;;;;;;;;;29.59;39.19;100164.75;5047203;28;1035;-34
2023/08/31 10:21:45;;;;;;;;;;;;;;;29.56;39.52;100171.41;5077803;28;1059;-35
2023/08/31 10:24:11;;;;;;;;;;;;;;;29.62;39.43;100158.91;5077338;28;1973;-32
2023/08/31 10:26:36;;;;;;;;;;;;;;;29.55;39.76;100160.78;5058984;28;1027;-34
2023/08/31 10:29:04;;;;;;;;;;;;;;;29.60;39.86;100162.88;5077473;28;1076;-35
2023/08/31 10:31:31;;;;;;;;;;;;;;;29.62;39.90;100168.91;5076280;28;1185;-35
2023/08/31 10:33:59;;;;;;;;;;;;;;;29.62;40.20;100166.19;5057305;28;1127;-37
2023/08/31 10:36:34;;;;;;;;;;;;;;;29.64;40.05;100164.13;5071412;28;1003;-37
2023/08/31 10:39:00;;;;;;;;;;;;;;;29.52;40.42;100174.75;5077460;28;1173;-34
2023/08/31 10:41:32;;;;;;;;;;;;;;;29.55;40.27;100172.44;5073905;28;2571;-34
2023/08/31 10:43:57;;;;;;;;;;;;;;;29.56;40.23;100170.59;5039125;28;1902;-33
2023/08/31 10:46:38;;;;;;;;;;;;;;;29.59;40.48;100167.47;5073589;28;1068;-32
2023/08/31 10:49:09;;;;;;;;;;;;;;;29.58;40.34;100163.88;5076749;28;1096;-37
2023/08/31 10:51:35;;;;;;;;;;;;;;;29.50;40.72;100160.56;5070739;28;1121;-35
2023/08/31 10:54:09;;;;;;;;;;;;;;;29.46;40.54;100161.00;5071522;28;881;-36
2023/08/31 10:56:39;;;;;;;;;;;;;;;29.34;41.00;100152.69;5063746;28;1004;-35
2023/08/31 10:59:05;;;;;;;;;;;;;;;29.29;40.98;100160.66;5057887;28;1399;-34
2023/08/31 11:01:49;;;;;;;;;;;;;;;29.26;41.10;100162.94;5075743;28;1388;-31
2023/08/31 11:04:14;;;;;;;;;;;;;;;29.24;41.25;100159.63;5076212;28;1913;-34
2023/08/31 11:06:40;;;;;;;;;;;;;;;29.10;41.61;100162.34;5057895;28;1061;-36
2023/08/31 11:09:05;;;;;;;;;;;;;;;29.16;41.58;100161.50;5058725;28;1206;-32
2023/08/31 11:11:37;;;;;;;;;;;;;;;29.10;41.21;100154.22;5075749;28;2486;-36
2023/08/31 11:14:03;;;;;;;;;;;;;;;28.95;41.71;100154.41;5076079;28;1178;-34
2023/08/31 11:16:29;;;;;;;;;;;;;;;29.01;41.71;100155.50;5075851;28;1107;-35
2023/08/31 11:18:55;;;;;;;;;;;;;;;29.01;41.88;100153.59;5062950;28;1418;-37
2023/08/31 11:21:21;;;;;;;;;;;;;;;29.05;41.62;100149.44;5076133;28;1095;-36
2023/08/31 11:23:47;;;;;;;;;;;;;;;29.20;41.59;100161.91;5075885;28;1975;-34
2023/08/31 11:26:13;;;;;;;;;;;;;;;29.16;41.47;100164.19;5063526;28;1051;-32
2023/08/31 11:28:38;;;;;;;;;;;;;;;29.08;41.55;100169.84;5075656;28;1134;-34
2023/08/31 11:31:04;;;;;;;;;;;;;;;29.07;41.66;100165.47;5059493;28;1062;-31
2023/08/31 11:33:33;;;;;;;;;;;;;;;29.08;41.48;100170.69;5055608;28;1238;-36
2023/08/31 11:35:59;;;;;;;;;;;;;;;29.02;41.82;100162.56;5073375;28;1171;-33
2023/08/31 11:38:24;;;;;;;;;;;;;;;29.03;41.98;100177.78;5075862;28;1234;-34
2023/08/31 11:40:50;;;;;;;;;;;;;;;29.07;41.50;100177.16;5066306;28;2294;-34
2023/08/31 11:43:16;;;;;;;;;;;;;;;29.08;41.62;100177.97;5038202;28;1203;-35
2023/08/31 11:45:41;;;;;;;;;;;;;;;28.99;41.86;100169.25;5069280;28;1925;-34
2023/08/31 11:48:07;;;;;;;;;;;;;;;29.21;41.13;100183.38;5057350;28;1202;-31
2023/08/31 11:50:32;;;;;;;;;;;;;;;29.03;42.13;100175.09;5075755;28;1254;-33
2023/08/31 11:52:58;;;;;;;;;;;;;;;29.20;41.50;100179.00;5055817;28;1238;-34
2023/08/31 11:55:23;;;;;;;;;;;;;;;29.09;41.73;100172.34;5053947;28;1202;-34
2023/08/31 11:57:50;;;;;;;;;;;;;;;29.11;41.83;100176.72;5054944;28;1203;-36
2023/08/31 12:00:19;;;;;;;;;;;;;;;29.16;41.44;100190.47;5055669;28;1202;-34
2023/08/31 12:02:48;;;;;;;;;;;;;;;29.04;41.74;100176.75;5055228;28;1203;-33
2023/08/31 12:05:14;;;;;;;;;;;;;;;29.04;41.92;100179.44;5071979;28;1918;-31
2023/08/31 12:07:43;;;;;;;;;;;;;;;28.98;41.89;100183.00;5055326;28;1321;-31
2023/08/31 12:10:09;;;;;;;;;;;;;;;28.96;41.79;100175.88;5058947;28;2428;-31
2023/08/31 12:12:36;;;;;;;;;;;;;;;28.99;41.99;100181.94;5066563;28;1004;-33
2023/08/31 12:15:03;;;;;;;;;;;;;;;28.94;41.98;100174.44;5075722;28;1133;-34
2023/08/31 12:17:30;;;;;;;;;;;;;;;28.94;41.82;100166.31;5078816;28;1119;-30
2023/08/31 12:20:04;;;;;;;;;;;;;;;28.97;41.79;100182.16;5079465;28;1170;-35
2023/08/31 12:22:29;;;;;;;;;;;;;;;29.09;41.40;100166.91;5079410;28;1136;-36
2023/08/31 12:24:55;;;;;;;;;;;;;;;29.04;41.44;100155.91;5078485;28;1906;-35
2023/08/31 12:27:21;;;;;;;;;;;;;;;29.01;41.80;100164.44;5078941;28;1230;-34
2023/08/31 12:29:46;;;;;;;;;;;;;;;29.07;41.46;100162.78;5073302;28;1294;-33
2023/08/31 12:32:12;;;;;;;;;;;;;;;29.06;41.44;100161.94;5058767;28;1242;-32
2023/08/31 12:34:37;;;;;;;;;;;;;;;29.05;41.59;100160.28;5069427;28;1207;-32
2023/08/31 12:37:04;;;;;;;;;;;;;;;28.96;41.73;100159.63;5079140;28;1235;-34
2023/08/31 12:39:30;;;;;;;;;;;;;;;29.02;41.69;100160.72;5077642;28;2484;-34
2023/08/31 12:41:56;;;;;;;;;;;;;;;28.91;41.93;100158.59;5067083;28;1038;-35
2023/08/31 12:44:22;;;;;;;;;;;;;;;28.93;42.06;100162.75;5065514;28;1975;-34
2023/08/31 12:46:47;;;;;;;;;;;;;;;29.04;41.66;100163.19;5079312;28;1102;-34